Bagley, Wisconsin
Current Conditions -  °F | °C
As of 3:15 AM on Sunday 21 Dec 2014 (Local Time) from KPDC Reporting Station
Haze Haze  
Wind Chill: 26°   Ceiling: 400
Heat Index: 32°   Visibility: 1.2mi
Dew Point: 31°   Wind: 7mph
Humidity: 96%   Direction: 90°E
Pressure: 30.12"   Gusts: NA
Location:  42.91°N, 91.1°W
Report Text: KPDC 210915Z AUTO 09006KT 1 1/4SM BR OVC004 00/00 A3012 RMK AO2 T00001005
Loading
Personal Weather Stations






























Interactive Weather Map New forecast layout! Learn more

10-Day Weather Forecast

Advertisements
Track Severe Weather on mobile